DLH2533 LGMK-EDDF
Flight info
| Callsign | DLH2533 |
|---|---|
| Flight time | N/A |
| Altitude | 40000 |
| Route | VARIX L995 KEA UN132 ROPOX UM749 SKP UL617 MAKED DCT LONTA UL608 DOLEV DCT LURID DCT BEDOX DCT SIMBA DCT AKINI T161 DEBHI SPESA5C |
| Aircraft | A333/H-SDE3GHIJ2J3J5M1RVWXY/LB2D1 |
Departure
| Time | 2026-05-08 17:46 |
|---|---|
| Airport | Mykonos Island National Airport (LGMK) |
Arrival
| Time | N/A |
|---|---|
| Airport | Frankfurt Main Airport (EDDF) |
| Time | Latitude | Longitude | Altitude | Speed | Heading |
|---|---|---|---|---|---|
| 2026-05-08 17:18 | 37.43428 | 25.34684 | 411 ft | 0 kts | 251° |
| 2026-05-08 17:36 | 37.43429 | 25.34685 | 411 ft | 2 kts | 251° |
| 2026-05-08 17:37 | 37.43433 | 25.34715 | 411 ft | 4 kts | 279° |
| 2026-05-08 17:37 | 37.43423 | 25.34743 | 403 ft | 4 kts | 325° |
| 2026-05-08 17:37 | 37.43406 | 25.34754 | 411 ft | 0 kts | 341° |
| 2026-05-08 17:40 | 37.43416 | 25.34750 | 408 ft | 3 kts | 341° |
| 2026-05-08 17:41 | 37.43441 | 25.34739 | 408 ft | 5 kts | 341° |
| 2026-05-08 17:41 | 37.43478 | 25.34723 | 407 ft | 7 kts | 341° |
| 2026-05-08 17:41 | 37.43528 | 25.34701 | 407 ft | 9 kts | 341° |
| 2026-05-08 17:41 | 37.43591 | 25.34675 | 411 ft | 10 kts | 347° |
| 2026-05-08 17:42 | 37.43654 | 25.34699 | 407 ft | 9 kts | 33° |
| 2026-05-08 17:42 | 37.43706 | 25.34729 | 409 ft | 9 kts | 4° |
| 2026-05-08 17:42 | 37.43795 | 25.34697 | 414 ft | 16 kts | 341° |
| 2026-05-08 17:42 | 37.43905 | 25.34649 | 410 ft | 17 kts | 341° |
| 2026-05-08 17:43 | 37.44027 | 25.34595 | 412 ft | 20 kts | 340° |
| 2026-05-08 17:43 | 37.44167 | 25.34532 | 407 ft | 22 kts | 340° |
| 2026-05-08 17:43 | 37.44265 | 25.34518 | 409 ft | 10 kts | 17° |
| 2026-05-08 17:43 | 37.44311 | 25.34494 | 408 ft | 3 kts | 277° |
| 2026-05-08 17:44 | 37.44295 | 25.34485 | 408 ft | 4 kts | 183° |
| 2026-05-08 17:44 | 37.44279 | 25.34487 | 409 ft | 0 kts | 167° |
| 2026-05-08 17:45 | 37.44277 | 25.34488 | 409 ft | 6 kts | 167° |
| 2026-05-08 17:45 | 37.44097 | 25.34545 | 409 ft | 23 kts | 161° |
| 2026-05-08 17:45 | 37.43962 | 25.34619 | 410 ft | 44 kts | 158° |
| 2026-05-08 17:45 | 37.43411 | 25.34868 | 408 ft | 124 kts | 160° |
| 2026-05-08 17:46 | 37.42442 | 25.35307 | 882 ft | 160 kts | 161° |
| 2026-05-08 17:46 | 37.41399 | 25.35769 | 1618 ft | 155 kts | 163° |
| 2026-05-08 17:46 | 37.40383 | 25.36202 | 2348 ft | 154 kts | 166° |
| 2026-05-08 17:46 | 37.39362 | 25.36608 | 3004 ft | 156 kts | 167° |
| 2026-05-08 17:47 | 37.38247 | 25.37045 | 3349 ft | 181 kts | 167° |
| 2026-05-08 17:47 | 37.36957 | 25.37542 | 3718 ft | 206 kts | 167° |
| 2026-05-08 17:47 | 37.35512 | 25.38086 | 4020 ft | 234 kts | 167° |
| 2026-05-08 17:47 | 37.34414 | 25.38491 | 4243 ft | 252 kts | 167° |
| 2026-05-08 17:48 | 37.32101 | 25.39277 | 5091 ft | 264 kts | 176° |
| 2026-05-08 17:48 | 37.30290 | 25.39047 | 5843 ft | 262 kts | 204° |
| 2026-05-08 17:48 | 37.28773 | 25.37824 | 6673 ft | 260 kts | 224° |
| 2026-05-08 17:48 | 37.27458 | 25.36250 | 7436 ft | 260 kts | 234° |
| 2026-05-08 17:49 | 37.26571 | 25.34302 | 7904 ft | 256 kts | 255° |
| 2026-05-08 17:49 | 37.26433 | 25.32101 | 8146 ft | 255 kts | 280° |
| 2026-05-08 17:49 | 37.26994 | 25.29972 | 8771 ft | 259 kts | 291° |
| 2026-05-08 17:49 | 37.27704 | 25.27931 | 9782 ft | 257 kts | 292° |
| 2026-05-08 17:50 | 37.28436 | 25.25887 | 10718 ft | 256 kts | 292° |
| 2026-05-08 17:50 | 37.29173 | 25.23827 | 11457 ft | 261 kts | 292° |
| 2026-05-08 17:50 | 37.29923 | 25.21722 | 12190 ft | 266 kts | 292° |
| 2026-05-08 17:50 | 37.30682 | 25.19583 | 12946 ft | 270 kts | 292° |
| 2026-05-08 17:51 | 37.31453 | 25.17406 | 13698 ft | 274 kts | 292° |
| 2026-05-08 17:51 | 37.32234 | 25.15199 | 14395 ft | 278 kts | 292° |
| 2026-05-08 17:51 | 37.33049 | 25.13003 | 14971 ft | 287 kts | 296° |
| 2026-05-08 17:51 | 37.34156 | 25.10812 | 15266 ft | 306 kts | 301° |
| 2026-05-08 17:52 | 37.35429 | 25.08572 | 15544 ft | 324 kts | 303° |
| 2026-05-08 17:52 | 37.36833 | 25.06260 | 15864 ft | 339 kts | 304° |
| 2026-05-08 17:52 | 37.39833 | 25.01531 | 17022 ft | 352 kts | 305° |
| 2026-05-08 17:53 | 37.41377 | 24.99119 | 17741 ft | 354 kts | 305° |
| 2026-05-08 17:53 | 37.42929 | 24.96681 | 18430 ft | 357 kts | 304° |
| 2026-05-08 17:53 | 37.44489 | 24.94215 | 19006 ft | 360 kts | 304° |
| 2026-05-08 17:53 | 37.46038 | 24.91753 | 19600 ft | 363 kts | 304° |
| 2026-05-08 17:54 | 37.47608 | 24.89246 | 20169 ft | 365 kts | 304° |
| 2026-05-08 17:54 | 37.49187 | 24.86720 | 20746 ft | 368 kts | 304° |
| 2026-05-08 17:54 | 37.50778 | 24.84172 | 21310 ft | 370 kts | 304° |
| 2026-05-08 17:54 | 37.52375 | 24.81613 | 21857 ft | 373 kts | 304° |
| 2026-05-08 17:55 | 37.53969 | 24.79056 | 22402 ft | 376 kts | 304° |
| 2026-05-08 17:55 | 37.55593 | 24.76450 | 22963 ft | 378 kts | 304° |
| 2026-05-08 17:55 | 37.57226 | 24.73829 | 23497 ft | 381 kts | 304° |
| 2026-05-08 17:55 | 37.58898 | 24.71208 | 23937 ft | 385 kts | 307° |
| 2026-05-08 17:56 | 37.60844 | 24.68827 | 24380 ft | 393 kts | 316° |
| 2026-05-08 17:56 | 37.63103 | 24.66833 | 24824 ft | 399 kts | 322° |
| 2026-05-08 17:56 | 37.65475 | 24.65048 | 25246 ft | 403 kts | 324° |
| 2026-05-08 17:56 | 37.67963 | 24.63346 | 25660 ft | 407 kts | 326° |
| 2026-05-08 17:57 | 37.70489 | 24.61697 | 26092 ft | 409 kts | 326° |
| 2026-05-08 17:57 | 37.73036 | 24.60058 | 26510 ft | 411 kts | 326° |
| 2026-05-08 17:57 | 37.75595 | 24.58407 | 26929 ft | 413 kts | 326° |
| 2026-05-08 17:57 | 37.78158 | 24.56737 | 27345 ft | 415 kts | 326° |
| 2026-05-08 17:58 | 37.80734 | 24.55042 | 27743 ft | 417 kts | 326° |
| 2026-05-08 17:58 | 37.83285 | 24.53352 | 28176 ft | 419 kts | 325° |
| 2026-05-08 17:58 | 37.85883 | 24.51622 | 28580 ft | 422 kts | 325° |
| 2026-05-08 17:58 | 37.88484 | 24.49885 | 28985 ft | 423 kts | 325° |
| 2026-05-08 17:59 | 37.91106 | 24.48132 | 29386 ft | 426 kts | 324° |
| 2026-05-08 17:59 | 37.92845 | 24.46969 | 29646 ft | 427 kts | 324° |
| 2026-05-08 17:59 | 37.96339 | 24.44629 | 30027 ft | 430 kts | 324° |
| 2026-05-08 18:00 | 38.00767 | 24.41665 | 30065 ft | 431 kts | 324° |
| 2026-05-08 18:00 | 38.08692 | 24.36354 | 30061 ft | 430 kts | 324° |
| 2026-05-08 18:01 | 38.13980 | 24.32802 | 30046 ft | 428 kts | 324° |
| 2026-05-08 18:01 | 38.19216 | 24.29280 | 30050 ft | 427 kts | 324° |
| 2026-05-08 18:02 | 38.24494 | 24.25722 | 30256 ft | 431 kts | 324° |
| 2026-05-08 18:02 | 38.27148 | 24.23925 | 30670 ft | 430 kts | 324° |
| 2026-05-08 18:02 | 38.29799 | 24.22129 | 31006 ft | 432 kts | 324° |
| 2026-05-08 18:03 | 38.32437 | 24.20341 | 31324 ft | 434 kts | 324° |
| 2026-05-08 18:03 | 38.35127 | 24.18518 | 31624 ft | 437 kts | 324° |
| 2026-05-08 18:03 | 38.37776 | 24.16726 | 32089 ft | 435 kts | 324° |
| 2026-05-08 18:03 | 38.40448 | 24.14920 | 32650 ft | 431 kts | 324° |
| 2026-05-08 18:04 | 38.43098 | 24.13126 | 33149 ft | 428 kts | 324° |
| 2026-05-08 18:04 | 38.45732 | 24.11340 | 33609 ft | 426 kts | 323° |
| 2026-05-08 18:04 | 38.48354 | 24.09558 | 34043 ft | 425 kts | 323° |
| 2026-05-08 18:04 | 38.50929 | 24.07805 | 34388 ft | 424 kts | 323° |
| 2026-05-08 18:05 | 38.53540 | 24.06025 | 34727 ft | 423 kts | 323° |
| 2026-05-08 18:05 | 38.56135 | 24.04256 | 35113 ft | 420 kts | 323° |
| 2026-05-08 18:05 | 38.58718 | 24.02495 | 35394 ft | 421 kts | 323° |
| 2026-05-08 18:05 | 38.61319 | 24.00715 | 35535 ft | 424 kts | 323° |
| 2026-05-08 18:06 | 38.63891 | 23.98955 | 35758 ft | 425 kts | 323° |
| 2026-05-08 18:06 | 38.66504 | 23.97166 | 36021 ft | 425 kts | 323° |
| 2026-05-08 18:06 | 38.69108 | 23.95385 | 36313 ft | 425 kts | 323° |
| 2026-05-08 18:06 | 38.71715 | 23.93600 | 36595 ft | 425 kts | 323° |
| 2026-05-08 18:07 | 38.74338 | 23.91803 | 36859 ft | 425 kts | 323° |
| 2026-05-08 18:07 | 38.76950 | 23.90011 | 37122 ft | 425 kts | 324° |
| 2026-05-08 18:07 | 38.79526 | 23.88242 | 37380 ft | 425 kts | 324° |
| 2026-05-08 18:07 | 38.82135 | 23.86450 | 37651 ft | 425 kts | 324° |
| 2026-05-08 18:08 | 38.84744 | 23.84654 | 37851 ft | 427 kts | 324° |
| 2026-05-08 18:08 | 38.87369 | 23.82845 | 38003 ft | 429 kts | 324° |
| 2026-05-08 18:08 | 38.90005 | 23.81028 | 38247 ft | 429 kts | 324° |
| 2026-05-08 18:08 | 38.92640 | 23.79212 | 38500 ft | 429 kts | 324° |
| 2026-05-08 18:09 | 38.95234 | 23.77423 | 38735 ft | 428 kts | 324° |